createdAt,value
2022-09-14T00:01:27.047Z,11.40
2022-09-14T00:04:06.755Z,11.40
2022-09-14T00:06:34.139Z,11.40
2022-09-14T00:09:01.633Z,11.40
2022-09-14T00:11:31.161Z,11.30
2022-09-14T00:13:59.237Z,11.40
2022-09-14T00:16:31.675Z,11.30
2022-09-14T00:19:07.769Z,11.30
2022-09-14T00:21:37.182Z,11.30
2022-09-14T00:24:06.162Z,11.30
2022-09-14T00:26:33.116Z,11.30
2022-09-14T00:29:04.580Z,11.30
2022-09-14T00:31:34.905Z,11.30
2022-09-14T00:34:03.075Z,11.30
2022-09-14T00:36:31.387Z,11.30
2022-09-14T00:39:00.852Z,11.30
2022-09-14T00:41:33.206Z,11.30
2022-09-14T00:44:06.179Z,11.30
2022-09-14T00:46:38.686Z,11.30
2022-09-14T00:49:30.322Z,11.30
2022-09-14T00:52:14.864Z,11.30
2022-09-14T00:55:08.521Z,11.30
2022-09-14T00:57:43.165Z,11.30
2022-09-14T01:00:12.428Z,11.20
2022-09-14T01:02:40.203Z,11.20
2022-09-14T01:05:08.585Z,11.20
2022-09-14T01:07:53.261Z,11.20
2022-09-14T01:10:23.101Z,11.30
2022-09-14T01:13:03.512Z,11.20
2022-09-14T01:15:35.477Z,11.30
2022-09-14T01:18:30.031Z,11.30
2022-09-14T01:21:31.291Z,11.30
2022-09-14T01:23:59.489Z,11.30
2022-09-14T01:26:32.170Z,11.20
2022-09-14T01:29:02.410Z,11.30
2022-09-14T01:31:55.529Z,11.30
2022-09-14T01:34:40.768Z,11.20
2022-09-14T01:37:31.465Z,11.30
2022-09-14T01:40:10.413Z,11.30
2022-09-14T01:42:38.277Z,11.30
2022-09-14T01:45:10.858Z,11.30
2022-09-14T01:47:47.378Z,11.30
2022-09-14T01:50:34.199Z,11.30
2022-09-14T01:53:22.898Z,11.30
2022-09-14T01:56:16.133Z,11.30
2022-09-14T01:58:57.323Z,11.30
2022-09-14T02:01:35.469Z,11.30
2022-09-14T02:04:07.350Z,11.40
2022-09-14T02:06:36.497Z,11.30
2022-09-14T02:09:04.428Z,11.40
2022-09-14T02:11:31.507Z,11.30
2022-09-14T02:13:58.521Z,11.30
2022-09-14T02:16:26.254Z,11.30
2022-09-14T02:18:53.470Z,11.30
2022-09-14T02:21:24.964Z,11.30
2022-09-14T02:23:52.235Z,11.40
2022-09-14T02:26:21.266Z,11.40
2022-09-14T02:28:48.164Z,11.30
2022-09-14T02:31:29.033Z,11.30
2022-09-14T02:34:34.174Z,11.40
2022-09-14T02:37:09.732Z,11.30
2022-09-14T02:39:45.778Z,11.40
2022-09-14T02:42:22.784Z,11.40
2022-09-14T02:44:56.509Z,11.40
2022-09-14T02:48:04.672Z,11.40
2022-09-14T02:50:43.539Z,11.40
2022-09-14T02:53:42.839Z,11.50
2022-09-14T02:56:11.603Z,11.50
2022-09-14T02:58:41.235Z,11.50
2022-09-14T03:01:09.802Z,11.50
2022-09-14T03:03:37.101Z,11.50
2022-09-14T03:06:04.578Z,11.50
2022-09-14T03:08:31.876Z,11.50
2022-09-14T03:10:59.310Z,11.50
2022-09-14T03:13:26.277Z,11.50
2022-09-14T03:15:53.789Z,11.50
2022-09-14T03:18:21.127Z,11.50
2022-09-14T03:20:48.056Z,11.50
2022-09-14T03:23:15.331Z,11.60
2022-09-14T03:25:44.043Z,11.60
2022-09-14T03:28:12.279Z,11.60
2022-09-14T03:30:39.426Z,11.60
2022-09-14T03:33:06.693Z,11.60
2022-09-14T03:35:33.665Z,11.60
2022-09-14T03:38:03.202Z,11.60
2022-09-14T03:40:30.858Z,11.60
2022-09-14T03:42:58.174Z,11.60
2022-09-14T03:45:24.998Z,11.60
2022-09-14T03:47:51.981Z,11.60
2022-09-14T03:50:19.514Z,11.60
2022-09-14T03:52:46.548Z,11.60
2022-09-14T03:55:13.559Z,11.60
2022-09-14T03:57:40.534Z,11.70
2022-09-14T04:00:08.687Z,11.60
2022-09-14T04:02:35.720Z,11.60
2022-09-14T04:05:02.890Z,11.70
2022-09-14T04:07:29.836Z,11.60
2022-09-14T04:09:56.653Z,11.60
2022-09-14T04:12:23.559Z,11.70
2022-09-14T04:14:50.411Z,11.70
2022-09-14T04:17:18.095Z,11.70
2022-09-14T04:19:44.976Z,11.70
2022-09-14T04:22:12.150Z,11.70
2022-09-14T04:24:39.112Z,11.70
2022-09-14T04:27:06.070Z,11.70
2022-09-14T04:29:33.236Z,11.70
2022-09-14T04:32:00.232Z,11.70
2022-09-14T04:34:27.233Z,11.80
2022-09-14T04:36:54.344Z,11.80
2022-09-14T04:39:21.418Z,11.80
2022-09-14T04:41:48.705Z,11.80
2022-09-14T04:44:15.671Z,11.80
2022-09-14T04:46:46.591Z,11.80
2022-09-14T04:49:15.766Z,11.80
2022-09-14T04:51:42.834Z,11.80
2022-09-14T04:54:13.200Z,11.80
2022-09-14T04:56:40.337Z,11.80
2022-09-14T04:59:07.590Z,11.80
2022-09-14T05:01:40.702Z,11.80
2022-09-14T05:04:11.575Z,11.90
2022-09-14T05:06:40.238Z,11.80
2022-09-14T05:09:14.039Z,11.90
2022-09-14T05:11:41.917Z,11.80
2022-09-14T05:14:14.120Z,11.80
2022-09-14T05:16:42.506Z,11.80
2022-09-14T05:19:15.708Z,11.80
2022-09-14T05:21:42.677Z,11.90
2022-09-14T05:24:17.536Z,11.90
2022-09-14T05:26:45.741Z,11.90
2022-09-14T05:29:14.975Z,11.90
2022-09-14T05:31:41.862Z,11.90
2022-09-14T05:34:10.340Z,12.00
2022-09-14T05:36:38.201Z,12.00
2022-09-14T05:39:06.151Z,12.00
2022-09-14T05:41:33.129Z,12.10
2022-09-14T05:44:00.443Z,12.20
2022-09-14T05:46:27.431Z,12.20
2022-09-14T05:48:54.390Z,12.30
2022-09-14T05:51:24.564Z,12.30
2022-09-14T05:53:53.489Z,12.40
2022-09-14T05:56:21.731Z,12.50
2022-09-14T05:58:49.213Z,12.50
2022-09-14T06:01:21.955Z,12.70
2022-09-14T06:03:49.825Z,12.70
2022-09-14T06:06:18.586Z,12.80
2022-09-14T06:08:46.829Z,12.80
2022-09-14T06:11:16.311Z,12.70
2022-09-14T06:13:44.358Z,12.80
2022-09-14T06:16:16.553Z,12.80
2022-09-14T06:18:45.324Z,12.80
2022-09-14T06:21:15.334Z,12.80
2022-09-14T06:23:42.927Z,12.80
2022-09-14T06:26:10.442Z,12.80
2022-09-14T06:28:37.771Z,12.80
2022-09-14T06:31:07.596Z,12.80
2022-09-14T06:33:35.852Z,12.80
2022-09-14T06:36:04.442Z,13.00
2022-09-14T06:38:33.381Z,12.90
2022-09-14T06:41:04.607Z,13.00
2022-09-14T06:43:33.671Z,13.00
2022-09-14T06:46:04.768Z,13.00
2022-09-14T06:48:38.124Z,13.00
2022-09-14T06:51:39.000Z,13.20
2022-09-14T06:54:06.885Z,13.30
2022-09-14T06:56:39.060Z,13.30
2022-09-14T06:59:07.737Z,13.30
2022-09-14T07:01:35.188Z,13.40
2022-09-14T07:04:03.430Z,13.50
2022-09-14T07:06:47.033Z,13.70
2022-09-14T07:09:17.298Z,13.90
2022-09-14T07:11:44.753Z,14.10
2022-09-14T07:14:12.487Z,14.20
2022-09-14T07:16:40.653Z,14.50
2022-09-14T07:19:11.572Z,14.60
2022-09-14T07:21:38.625Z,14.80
2022-09-14T07:24:06.057Z,14.70
2022-09-14T07:26:44.788Z,14.70
2022-09-14T07:29:17.674Z,14.70
2022-09-14T07:31:50.316Z,14.60
2022-09-14T07:34:18.182Z,14.50
2022-09-14T07:36:45.553Z,14.50
2022-09-14T07:39:14.789Z,14.40
2022-09-14T07:41:42.109Z,14.30
2022-09-14T07:44:09.918Z,14.30
2022-09-14T07:46:42.319Z,14.40
2022-09-14T07:49:10.011Z,14.40
2022-09-14T07:51:37.525Z,14.30
2022-09-14T07:54:06.288Z,14.20
2022-09-14T07:56:35.067Z,14.20
2022-09-14T07:59:30.916Z,14.20
2022-09-14T08:01:51.212Z,14.10
2022-09-14T08:04:18.233Z,14.10
2022-09-14T08:06:45.317Z,14.10
2022-09-14T08:09:12.621Z,14.10
2022-09-14T08:11:39.550Z,14.20
2022-09-14T08:14:11.941Z,14.20
2022-09-14T08:16:40.987Z,14.30
2022-09-14T08:19:13.695Z,14.40
2022-09-14T08:21:45.642Z,14.40
2022-09-14T08:24:16.762Z,14.50
2022-09-14T08:26:43.683Z,14.50
2022-09-14T08:29:12.729Z,14.60
2022-09-14T08:31:40.296Z,14.60
2022-09-14T08:34:07.929Z,14.60
2022-09-14T08:36:37.195Z,14.60
2022-09-14T08:39:06.389Z,14.60
2022-09-14T08:41:39.207Z,14.60
2022-09-14T08:44:21.025Z,14.70
2022-09-14T08:46:51.811Z,14.70
2022-09-14T08:49:21.833Z,14.70
2022-09-14T08:51:50.350Z,14.60
2022-09-14T08:54:17.567Z,14.60
2022-09-14T08:56:49.161Z,14.60
2022-09-14T08:59:33.316Z,14.60
2022-09-14T09:02:21.542Z,14.70
2022-09-14T09:05:01.248Z,14.80
2022-09-14T09:07:46.424Z,14.80
2022-09-14T09:10:13.951Z,14.80
2022-09-14T09:12:55.193Z,14.80
2022-09-14T09:15:45.191Z,14.80
2022-09-14T09:18:43.149Z,14.80
2022-09-14T09:21:17.205Z,14.90
2022-09-14T09:23:45.031Z,15.00
2022-09-14T09:26:27.922Z,15.00
2022-09-14T09:29:03.774Z,15.20
2022-09-14T09:31:37.628Z,15.20
2022-09-14T09:34:05.175Z,15.40
2022-09-14T09:36:37.121Z,15.60
2022-09-14T09:39:05.449Z,15.80
2022-09-14T09:41:47.577Z,15.80
2022-09-14T09:44:15.318Z,15.90
2022-09-14T09:47:02.098Z,16.30
2022-09-14T09:49:32.529Z,16.60
2022-09-14T09:52:15.290Z,16.70
2022-09-14T09:54:49.137Z,17.00
2022-09-14T09:57:37.231Z,17.00
2022-09-14T10:00:25.186Z,17.10
2022-09-14T10:02:53.542Z,17.10
2022-09-14T10:05:32.350Z,17.20
2022-09-14T10:08:00.124Z,17.10
2022-09-14T10:10:43.119Z,17.00
2022-09-14T10:13:38.541Z,16.90
2022-09-14T10:16:07.906Z,16.90
2022-09-14T10:18:35.619Z,17.20
2022-09-14T10:21:02.606Z,17.40
2022-09-14T10:23:33.486Z,17.40
2022-09-14T10:26:12.456Z,17.50
2022-09-14T10:28:47.516Z,17.30
2022-09-14T10:31:19.975Z,17.30
2022-09-14T10:33:53.408Z,17.40
2022-09-14T10:36:33.370Z,17.80
2022-09-14T10:39:47.836Z,17.90
2022-09-14T10:42:38.449Z,18.00
2022-09-14T10:45:21.590Z,17.90
2022-09-14T10:48:16.468Z,17.90
2022-09-14T10:51:04.799Z,17.70
2022-09-14T10:53:56.538Z,17.70
2022-09-14T10:56:38.804Z,17.60
2022-09-14T10:59:21.072Z,17.50
2022-09-14T11:02:26.362Z,17.40
2022-09-14T11:05:30.725Z,17.40
2022-09-14T11:08:23.870Z,17.60
2022-09-14T11:11:09.337Z,17.70
2022-09-14T11:13:50.469Z,17.80
2022-09-14T11:16:23.677Z,17.70
2022-09-14T11:19:36.067Z,17.80
2022-09-14T11:22:12.905Z,17.70
2022-09-14T11:25:02.739Z,17.60
2022-09-14T11:27:36.096Z,17.80
2022-09-14T11:30:33.631Z,18.00
2022-09-14T11:33:07.814Z,18.00
2022-09-14T11:35:45.658Z,18.00
2022-09-14T11:38:21.551Z,18.10
2022-09-14T11:40:54.225Z,18.00
2022-09-14T11:43:26.184Z,18.00
2022-09-14T11:46:11.670Z,18.00
2022-09-14T11:49:08.247Z,18.00
2022-09-14T11:51:49.624Z,18.00
2022-09-14T11:54:22.167Z,18.00
2022-09-14T11:57:01.749Z,17.90
2022-09-14T11:59:40.766Z,17.80
2022-09-14T12:02:26.473Z,17.60
2022-09-14T12:05:08.394Z,17.40
2022-09-14T12:07:45.526Z,17.00
2022-09-14T12:10:22.135Z,16.70
2022-09-14T12:13:07.302Z,16.40
2022-09-14T12:15:37.217Z,16.00
2022-09-14T12:18:07.174Z,15.90
2022-09-14T12:20:34.228Z,15.70
2022-09-14T12:23:23.167Z,15.60
2022-09-14T12:25:58.818Z,15.60
2022-09-14T12:28:37.853Z,15.40
2022-09-14T12:31:05.126Z,15.40
2022-09-14T12:33:32.065Z,15.40
2022-09-14T12:35:59.415Z,15.40
2022-09-14T12:38:32.176Z,15.50
2022-09-14T12:41:19.533Z,15.50
2022-09-14T12:43:49.387Z,15.60
2022-09-14T12:46:22.367Z,15.70
2022-09-14T12:48:49.406Z,15.80
2022-09-14T12:51:46.612Z,15.90
2022-09-14T12:54:16.658Z,15.90
2022-09-14T12:57:08.196Z,15.90
2022-09-14T12:59:41.590Z,16.10
2022-09-14T13:02:14.713Z,16.10
2022-09-14T13:04:45.579Z,16.10
2022-09-14T13:07:21.070Z,16.20
2022-09-14T13:09:53.102Z,16.30
2022-09-14T13:12:34.651Z,16.40
2022-09-14T13:15:08.128Z,16.50
2022-09-14T13:17:35.006Z,16.50
2022-09-14T13:20:05.740Z,16.60
2022-09-14T13:22:33.902Z,16.60
2022-09-14T13:25:04.011Z,16.60
2022-09-14T13:27:34.772Z,16.70
2022-09-14T13:30:10.553Z,16.60
2022-09-14T13:32:43.136Z,16.60
2022-09-14T13:35:46.796Z,16.60
2022-09-14T13:38:35.827Z,16.60
2022-09-14T13:41:12.477Z,16.60
2022-09-14T13:43:41.951Z,16.70
2022-09-14T13:46:10.811Z,16.80
2022-09-14T13:48:40.380Z,16.80
2022-09-14T13:51:08.596Z,16.90
2022-09-14T13:53:48.724Z,16.90
2022-09-14T13:56:19.861Z,16.90
2022-09-14T13:58:48.676Z,16.90
2022-09-14T14:01:26.418Z,16.80
2022-09-14T14:03:53.731Z,16.60
2022-09-14T14:06:32.125Z,16.60
2022-09-14T14:09:09.866Z,16.60
2022-09-14T14:11:46.286Z,16.60
2022-09-14T14:14:16.219Z,16.70
2022-09-14T14:17:21.628Z,16.70
2022-09-14T14:19:50.742Z,16.70
2022-09-14T14:22:31.817Z,16.80
2022-09-14T14:25:13.226Z,16.80
2022-09-14T14:27:45.163Z,16.90
2022-09-14T14:30:18.289Z,17.00
2022-09-14T14:32:54.791Z,17.00
2022-09-14T14:35:25.635Z,17.00
2022-09-14T14:37:52.915Z,16.90
2022-09-14T14:40:20.859Z,16.80
2022-09-14T14:42:49.413Z,16.80
2022-09-14T14:45:26.566Z,16.70
2022-09-14T14:47:55.727Z,16.70
2022-09-14T14:50:26.676Z,16.60
2022-09-14T14:52:54.007Z,16.60
2022-09-14T14:55:22.693Z,16.60
2022-09-14T14:57:51.801Z,16.50
2022-09-14T15:00:24.710Z,16.50
2022-09-14T15:02:51.942Z,16.40
2022-09-14T15:05:20.143Z,16.40
2022-09-14T15:07:49.801Z,16.40
2022-09-14T15:10:18.018Z,16.50
2022-09-14T15:12:45.673Z,16.50
2022-09-14T15:15:17.876Z,16.50
2022-09-14T15:17:45.048Z,16.40
2022-09-14T15:20:13.099Z,16.40
2022-09-14T15:22:43.470Z,16.40
2022-09-14T15:25:11.726Z,16.30
2022-09-14T15:27:39.250Z,16.30
2022-09-14T15:30:08.150Z,16.30
2022-09-14T15:32:35.216Z,16.30
2022-09-14T15:35:02.817Z,16.30
2022-09-14T15:37:29.722Z,16.20
2022-09-14T15:39:56.848Z,16.20
2022-09-14T15:42:24.447Z,16.10
2022-09-14T15:44:51.497Z,16.10
2022-09-14T15:47:18.393Z,15.90
2022-09-14T15:49:45.251Z,15.80
2022-09-14T15:52:14.638Z,15.70
2022-09-14T15:54:41.501Z,15.60
2022-09-14T15:57:11.261Z,15.50
2022-09-14T15:59:39.669Z,15.50
2022-09-14T16:02:07.221Z,15.50
2022-09-14T16:04:38.278Z,15.50
2022-09-14T16:07:09.765Z,15.40
2022-09-14T16:09:38.890Z,15.40
2022-09-14T16:12:06.645Z,15.40
2022-09-14T16:14:33.573Z,15.40
2022-09-14T16:17:00.810Z,15.40
2022-09-14T16:19:28.134Z,15.30
2022-09-14T16:21:55.551Z,15.30
2022-09-14T16:24:24.296Z,15.30
2022-09-14T16:26:52.095Z,15.20
2022-09-14T16:29:20.362Z,15.20
2022-09-14T16:31:48.611Z,15.10
2022-09-14T16:34:18.739Z,15.10
2022-09-14T16:36:46.318Z,15.10
2022-09-14T16:39:18.946Z,15.10
2022-09-14T16:41:46.415Z,15.10
2022-09-14T16:44:21.930Z,15.10
2022-09-14T16:46:49.666Z,15.00
2022-09-14T16:49:22.305Z,15.00
2022-09-14T16:51:51.988Z,15.00
2022-09-14T16:54:21.749Z,15.00
2022-09-14T16:56:49.180Z,15.00
2022-09-14T16:59:17.648Z,14.90
2022-09-14T17:01:47.820Z,14.90
2022-09-14T17:04:21.583Z,14.90
2022-09-14T17:06:50.169Z,14.80
2022-09-14T17:09:28.452Z,14.80
2022-09-14T17:11:57.002Z,14.70
2022-09-14T17:14:31.098Z,14.70
2022-09-14T17:16:59.076Z,14.70
2022-09-14T17:19:27.264Z,14.70
2022-09-14T17:21:54.475Z,14.70
2022-09-14T17:24:21.866Z,14.60
2022-09-14T17:26:49.280Z,14.60
2022-09-14T17:29:16.187Z,14.60
2022-09-14T17:31:44.900Z,14.60
2022-09-14T17:34:14.209Z,14.50
2022-09-14T17:36:41.191Z,14.50
2022-09-14T17:39:11.940Z,14.40
2022-09-14T17:41:40.497Z,14.30
2022-09-14T17:44:10.141Z,14.20
2022-09-14T17:46:44.428Z,14.10
2022-09-14T17:49:14.109Z,14.10
2022-09-14T17:51:41.073Z,13.90
2022-09-14T17:54:09.234Z,13.90
2022-09-14T17:56:37.013Z,13.80
2022-09-14T17:59:13.066Z,13.70
2022-09-14T18:01:40.809Z,13.60
2022-09-14T18:04:10.524Z,13.50
2022-09-14T18:06:41.254Z,13.40
2022-09-14T18:09:11.807Z,13.30
2022-09-14T18:11:38.848Z,13.30
2022-09-14T18:14:06.764Z,13.20
2022-09-14T18:16:34.152Z,13.10
2022-09-14T18:19:01.187Z,13.10
2022-09-14T18:21:28.031Z,13.10
2022-09-14T18:23:55.596Z,13.00
2022-09-14T18:26:24.609Z,13.00
2022-09-14T18:28:53.642Z,13.00
2022-09-14T18:31:20.639Z,13.00
2022-09-14T18:33:59.479Z,12.90
2022-09-14T18:36:28.969Z,12.90
2022-09-14T18:38:57.615Z,12.90
2022-09-14T18:41:24.563Z,12.90
2022-09-14T18:43:53.275Z,12.90
2022-09-14T18:46:24.475Z,12.90
2022-09-14T18:48:56.860Z,12.90
2022-09-14T18:51:24.113Z,12.90
2022-09-14T18:54:00.040Z,12.90
2022-09-14T18:56:28.068Z,12.90
2022-09-14T18:58:55.207Z,12.80
2022-09-14T19:01:22.447Z,12.90
2022-09-14T19:03:49.379Z,12.90
2022-09-14T19:06:18.100Z,12.90
2022-09-14T19:08:45.051Z,12.90
2022-09-14T19:11:13.155Z,12.90
2022-09-14T19:13:40.359Z,12.90
2022-09-14T19:16:09.305Z,12.90
2022-09-14T19:18:36.324Z,12.90
2022-09-14T19:21:23.391Z,12.90
2022-09-14T19:23:57.584Z,12.90
2022-09-14T19:26:24.508Z,12.90
2022-09-14T19:28:51.449Z,12.80
2022-09-14T19:31:20.400Z,12.80
2022-09-14T19:33:47.162Z,12.80
2022-09-14T19:36:20.061Z,12.80
2022-09-14T19:38:48.210Z,12.80
2022-09-14T19:41:16.078Z,12.70
2022-09-14T19:43:43.425Z,12.70
2022-09-14T19:46:18.248Z,12.70
2022-09-14T19:48:46.348Z,12.70
2022-09-14T19:51:19.399Z,12.70
2022-09-14T19:53:48.305Z,12.70
2022-09-14T19:56:15.977Z,12.70
2022-09-14T19:58:46.723Z,12.60
2022-09-14T20:01:15.392Z,12.60
2022-09-14T20:03:43.660Z,12.60
2022-09-14T20:06:19.483Z,12.60
2022-09-14T20:08:47.593Z,12.60
2022-09-14T20:11:19.800Z,12.60
2022-09-14T20:13:50.856Z,12.50
2022-09-14T20:16:20.850Z,12.50
2022-09-14T20:18:49.026Z,12.50
2022-09-14T20:21:20.270Z,12.50
2022-09-14T20:24:11.410Z,12.50
2022-09-14T20:26:34.345Z,12.50
2022-09-14T20:29:01.919Z,12.50
2022-09-14T20:31:30.538Z,12.60
2022-09-14T20:33:58.377Z,12.60
2022-09-14T20:36:25.976Z,12.60
2022-09-14T20:38:55.658Z,12.60
2022-09-14T20:41:34.379Z,12.60
2022-09-14T20:44:01.782Z,12.60
2022-09-14T20:49:23.394Z,12.60
2022-09-14T20:51:52.723Z,12.60
2022-09-14T20:54:19.891Z,12.70
2022-09-14T20:56:47.006Z,12.70
2022-09-14T20:59:17.012Z,12.70
2022-09-14T21:01:45.759Z,12.70
2022-09-14T21:04:15.647Z,12.70
2022-09-14T21:06:47.899Z,12.80
2022-09-14T21:09:16.698Z,12.80
2022-09-14T21:11:13.157Z,12.60
2022-09-14T21:11:45.947Z,12.80
2022-09-14T21:14:14.760Z,12.80
2022-09-14T21:16:44.216Z,12.80
2022-09-14T21:19:14.054Z,12.80
2022-09-14T21:21:41.939Z,12.80
2022-09-14T21:24:13.006Z,12.80
2022-09-14T21:26:42.901Z,12.90
2022-09-14T21:29:14.236Z,12.90
2022-09-14T21:31:41.189Z,12.90
2022-09-14T21:34:10.309Z,12.90
2022-09-14T21:36:46.452Z,12.90
2022-09-14T21:39:21.636Z,12.90
2022-09-14T21:41:51.425Z,12.90
2022-09-14T21:44:21.509Z,12.90
2022-09-14T21:46:48.593Z,12.90
2022-09-14T21:49:17.643Z,12.90
2022-09-14T21:51:44.539Z,13.00
2022-09-14T21:54:12.995Z,12.90
2022-09-14T21:56:41.782Z,12.90
2022-09-14T21:59:20.355Z,13.00
2022-09-14T22:01:48.553Z,12.90
2022-09-14T22:04:18.500Z,13.00
2022-09-14T22:06:45.916Z,12.90
2022-09-14T22:09:17.150Z,13.00
2022-09-14T22:11:44.431Z,13.00
2022-09-14T22:14:23.230Z,13.00
2022-09-14T22:16:50.580Z,13.00
2022-09-14T22:19:23.623Z,13.00
2022-09-14T22:21:51.654Z,13.00
2022-09-14T22:24:22.900Z,13.00
2022-09-14T22:26:50.503Z,13.00
2022-09-14T22:29:18.754Z,13.00
2022-09-14T22:31:46.459Z,13.00
2022-09-14T22:34:13.892Z,13.00
2022-09-14T22:36:41.100Z,13.00
2022-09-14T22:39:09.854Z,13.00
2022-09-14T22:41:37.659Z,13.00
2022-09-14T22:44:05.295Z,13.10
2022-09-14T22:46:32.521Z,13.10
2022-09-14T22:48:59.704Z,13.10
2022-09-14T22:51:28.145Z,13.10
2022-09-14T22:53:54.989Z,13.10
2022-09-14T22:56:25.063Z,13.10
2022-09-14T22:58:52.885Z,13.10
2022-09-14T23:01:22.924Z,13.10
2022-09-14T23:03:54.798Z,13.20
2022-09-14T23:06:21.665Z,13.10
2022-09-14T23:08:48.546Z,13.20
2022-09-14T23:11:15.394Z,13.10
2022-09-14T23:13:43.015Z,13.10
2022-09-14T23:16:19.122Z,13.10
2022-09-14T23:18:54.221Z,13.10
2022-09-14T23:21:21.445Z,13.10
2022-09-14T23:23:59.309Z,13.20
2022-09-14T23:26:27.020Z,13.10
2022-09-14T23:28:57.246Z,13.10
2022-09-14T23:31:24.354Z,13.10
2022-09-14T23:33:56.740Z,13.20
2022-09-14T23:36:24.220Z,13.10
2022-09-14T23:38:51.919Z,13.20
2022-09-14T23:41:22.582Z,13.20
2022-09-14T23:43:49.996Z,13.20
2022-09-14T23:46:17.949Z,13.20
2022-09-14T23:48:45.571Z,13.20
2022-09-14T23:51:13.058Z,13.20
2022-09-14T23:53:40.231Z,13.20
2022-09-14T23:56:07.812Z,13.20
2022-09-14T23:58:35.231Z,13.20
